createdAt,value
2022-10-06T00:01:17.199Z,6.00
2022-10-06T00:03:46.639Z,3.60
2022-10-06T00:06:17.485Z,4.70
2022-10-06T00:08:47.236Z,5.90
2022-10-06T00:11:17.351Z,7.20
2022-10-06T00:13:45.986Z,3.60
2022-10-06T00:16:18.362Z,3.90
2022-10-06T00:18:46.813Z,4.80
2022-10-06T00:21:14.951Z,5.30
2022-10-06T00:23:43.302Z,4.50
2022-10-06T00:26:17.079Z,4.80
2022-10-06T00:28:49.229Z,6.00
2022-10-06T00:31:19.745Z,4.90
2022-10-06T00:33:50.426Z,6.30
2022-10-06T00:36:18.752Z,6.20
2022-10-06T00:38:47.243Z,4.10
2022-10-06T00:41:17.168Z,5.40
2022-10-06T00:43:46.015Z,6.40
2022-10-06T00:46:21.975Z,4.60
2022-10-06T00:48:55.648Z,5.10
2022-10-06T00:51:24.154Z,5.30
2022-10-06T00:53:52.727Z,5.80
2022-10-06T00:56:20.927Z,7.20
2022-10-06T00:58:50.301Z,6.50
2022-10-06T01:05:39.186Z,7.70
2022-10-06T01:08:08.919Z,5.40
2022-10-06T01:10:37.115Z,6.30
2022-10-06T01:13:06.717Z,4.90
2022-10-06T01:15:35.185Z,5.50
2022-10-06T01:18:13.850Z,4.30
2022-10-06T01:20:51.663Z,5.00
2022-10-06T01:23:20.393Z,4.90
2022-10-06T01:25:49.167Z,5.80
2022-10-06T01:28:17.333Z,6.60
2022-10-06T01:30:53.497Z,4.60
2022-10-06T01:33:24.185Z,6.30
2022-10-06T01:35:53.840Z,4.80
2022-10-06T01:38:24.149Z,4.80
2022-10-06T01:40:57.804Z,5.60
2022-10-06T01:43:26.225Z,5.40
2022-10-06T01:45:58.327Z,5.50
2022-10-06T01:48:28.084Z,3.30
2022-10-06T01:50:58.664Z,5.50
2022-10-06T01:53:26.773Z,4.20
2022-10-06T01:56:01.175Z,5.00
2022-10-06T01:58:31.899Z,6.70
2022-10-06T02:01:07.754Z,5.10
2022-10-06T02:03:38.247Z,5.30
2022-10-06T02:06:06.755Z,6.00
2022-10-06T02:08:35.625Z,4.90
2022-10-06T02:11:10.946Z,7.00
2022-10-06T02:13:42.297Z,5.10
2022-10-06T02:16:13.878Z,6.10
2022-10-06T02:18:43.532Z,4.30
2022-10-06T02:21:20.747Z,7.40
2022-10-06T02:23:49.600Z,4.30
2022-10-06T02:26:18.990Z,7.40
2022-10-06T02:28:47.795Z,6.80
2022-10-06T02:31:19.652Z,6.60
2022-10-06T02:33:48.256Z,5.90
2022-10-06T02:36:18.252Z,3.50
2022-10-06T02:38:46.769Z,5.90
2022-10-06T02:41:15.036Z,6.70
2022-10-06T02:43:43.146Z,4.10
2022-10-06T02:46:13.567Z,5.90
2022-10-06T02:48:47.045Z,6.00
2022-10-06T02:51:18.059Z,6.30
2022-10-06T02:53:48.371Z,5.60
2022-10-06T02:56:19.929Z,6.20
2022-10-06T02:58:49.955Z,6.30
2022-10-06T03:01:28.007Z,5.70
2022-10-06T03:03:58.931Z,5.60
2022-10-06T03:06:30.188Z,11.40
2022-10-06T03:09:06.266Z,6.90
2022-10-06T03:11:38.392Z,4.40
2022-10-06T03:14:07.704Z,7.90
2022-10-06T03:16:42.995Z,5.20
2022-10-06T03:19:15.447Z,4.90
2022-10-06T03:21:45.743Z,4.70
2022-10-06T03:24:15.279Z,3.70
2022-10-06T03:26:47.841Z,4.00
2022-10-06T03:29:16.541Z,7.10
2022-10-06T03:31:48.528Z,6.40
2022-10-06T03:34:16.655Z,7.00
2022-10-06T03:36:45.123Z,6.20
2022-10-06T03:39:13.513Z,4.20
2022-10-06T03:41:41.885Z,6.10
2022-10-06T03:44:10.837Z,7.60
2022-10-06T03:46:41.445Z,4.60
2022-10-06T03:49:10.257Z,6.90
2022-10-06T03:51:40.986Z,5.00
2022-10-06T03:54:13.022Z,6.40
2022-10-06T03:56:43.486Z,3.50
2022-10-06T03:59:16.497Z,6.20
2022-10-06T04:01:48.014Z,7.30
2022-10-06T04:04:27.488Z,4.40
2022-10-06T04:07:00.776Z,5.60
2022-10-06T04:09:28.978Z,6.40
2022-10-06T04:11:57.987Z,7.30
2022-10-06T04:14:26.229Z,4.90
2022-10-06T04:16:54.505Z,5.10
2022-10-06T04:19:27.475Z,5.20
2022-10-06T04:21:56.872Z,5.40
2022-10-06T04:24:26.613Z,6.50
2022-10-06T04:27:15.260Z,6.60
2022-10-06T04:29:45.643Z,4.60
2022-10-06T04:32:15.052Z,6.60
2022-10-06T04:34:43.388Z,7.40
2022-10-06T04:37:11.506Z,6.70
2022-10-06T04:39:41.254Z,5.20
2022-10-06T04:42:10.287Z,5.20
2022-10-06T04:44:38.527Z,6.60
2022-10-06T04:47:07.606Z,6.60
2022-10-06T04:49:35.861Z,6.10
2022-10-06T04:52:04.364Z,4.70
2022-10-06T04:54:34.869Z,4.20
2022-10-06T04:57:06.095Z,5.90
2022-10-06T04:59:53.048Z,5.50
2022-10-06T05:02:21.575Z,6.50
2022-10-06T05:04:53.697Z,7.10
2022-10-06T05:07:24.185Z,6.40
2022-10-06T05:09:52.510Z,7.60
2022-10-06T05:12:20.711Z,7.00
2022-10-06T05:14:49.190Z,5.00
2022-10-06T05:17:18.789Z,6.40
2022-10-06T05:19:47.671Z,6.10
2022-10-06T05:22:16.043Z,5.70
2022-10-06T05:24:44.445Z,8.60
2022-10-06T05:27:13.491Z,7.50
2022-10-06T05:29:42.184Z,8.70
2022-10-06T05:32:10.589Z,9.40
2022-10-06T05:34:39.080Z,7.00
2022-10-06T05:37:07.892Z,6.10
2022-10-06T05:39:36.680Z,7.60
2022-10-06T05:42:04.754Z,7.80
2022-10-06T05:44:33.121Z,5.50
2022-10-06T05:47:05.827Z,6.20
2022-10-06T05:49:34.128Z,6.80
2022-10-06T05:52:04.735Z,8.70
2022-10-06T05:54:35.479Z,5.50
2022-10-06T05:57:03.561Z,4.70
2022-10-06T05:59:34.058Z,4.10
2022-10-06T06:02:04.299Z,5.50
2022-10-06T06:04:35.076Z,7.00
2022-10-06T06:07:03.186Z,6.70
2022-10-06T06:09:31.517Z,9.00
2022-10-06T06:12:01.968Z,7.80
2022-10-06T06:15:04.752Z,7.40
2022-10-06T06:17:58.757Z,8.60
2022-10-06T06:20:27.104Z,6.50
2022-10-06T06:22:55.419Z,10.00
2022-10-06T06:25:26.697Z,7.60
2022-10-06T06:27:56.048Z,8.20
2022-10-06T06:30:25.444Z,7.20
2022-10-06T06:33:00.188Z,5.20
2022-10-06T06:35:28.510Z,6.60
2022-10-06T06:37:59.487Z,7.50
2022-10-06T06:40:27.714Z,4.70
2022-10-06T06:42:56.104Z,7.40
2022-10-06T06:45:49.090Z,6.60
2022-10-06T06:48:26.201Z,5.90
2022-10-06T06:51:01.039Z,3.40
2022-10-06T06:53:32.331Z,4.70
2022-10-06T06:56:02.156Z,5.10
2022-10-06T06:58:33.000Z,6.70
2022-10-06T07:01:13.761Z,8.60
2022-10-06T07:03:57.244Z,6.30
2022-10-06T07:06:29.578Z,5.10
2022-10-06T07:11:36.840Z,6.10
2022-10-06T07:14:12.649Z,5.60
2022-10-06T07:17:03.390Z,5.10
2022-10-06T07:19:50.125Z,4.40
2022-10-06T07:22:41.107Z,4.80
2022-10-06T07:25:26.697Z,4.80
2022-10-06T07:28:02.498Z,4.80
2022-10-06T07:30:39.818Z,4.90
2022-10-06T07:33:15.524Z,4.40
2022-10-06T07:35:45.433Z,6.00
2022-10-06T07:38:14.955Z,5.70
2022-10-06T07:41:17.758Z,4.00
2022-10-06T07:43:43.651Z,5.80
2022-10-06T07:46:13.279Z,7.70
2022-10-06T07:48:50.191Z,5.00
2022-10-06T07:51:19.660Z,4.10
2022-10-06T07:53:50.841Z,4.80
2022-10-06T07:56:32.639Z,4.20
2022-10-06T07:59:01.113Z,7.90
2022-10-06T08:01:30.760Z,4.20
2022-10-06T08:03:59.057Z,4.70
2022-10-06T08:06:27.100Z,8.80
2022-10-06T08:08:56.727Z,4.70
2022-10-06T08:11:25.253Z,6.70
2022-10-06T08:13:53.547Z,4.60
2022-10-06T08:16:23.547Z,6.80
2022-10-06T08:18:55.339Z,4.50
2022-10-06T08:21:29.763Z,3.60
2022-10-06T08:23:59.151Z,4.50
2022-10-06T08:26:28.261Z,4.00
2022-10-06T08:29:03.567Z,4.60
2022-10-06T08:31:32.677Z,4.90
2022-10-06T08:34:01.640Z,5.10
2022-10-06T08:36:32.313Z,4.60
2022-10-06T08:39:01.179Z,3.60
2022-10-06T08:41:40.572Z,3.50
2022-10-06T08:44:19.305Z,4.10
2022-10-06T08:47:02.987Z,4.80
2022-10-06T08:49:46.282Z,5.10
2022-10-06T08:52:35.634Z,3.80
2022-10-06T08:55:07.851Z,5.30
2022-10-06T08:57:42.520Z,4.50
2022-10-06T09:00:19.574Z,4.20
2022-10-06T09:02:51.038Z,7.00
2022-10-06T09:05:26.530Z,5.30
2022-10-06T09:08:04.386Z,4.60
2022-10-06T09:10:49.366Z,4.30
2022-10-06T09:13:22.182Z,4.80
2022-10-06T09:15:56.809Z,5.80
2022-10-06T09:18:56.104Z,4.40
2022-10-06T09:21:36.528Z,5.40
2022-10-06T09:24:14.069Z,6.40
2022-10-06T09:26:45.483Z,4.20
2022-10-06T09:29:14.738Z,4.50
2022-10-06T09:31:50.516Z,2.90
2022-10-06T09:34:31.670Z,3.20
2022-10-06T09:37:13.053Z,4.40
2022-10-06T09:39:44.083Z,3.00
2022-10-06T09:42:12.244Z,6.10
2022-10-06T09:44:48.198Z,3.80
2022-10-06T09:47:39.055Z,5.40
2022-10-06T09:52:49.819Z,4.50
2022-10-06T09:55:20.061Z,4.00
2022-10-06T09:57:51.151Z,4.60
2022-10-06T10:00:37.067Z,4.80
2022-10-06T10:03:08.842Z,4.40
2022-10-06T10:05:39.760Z,4.10
2022-10-06T10:10:48.191Z,4.30
2022-10-06T10:13:26.449Z,8.10
2022-10-06T10:16:00.500Z,3.60
2022-10-06T10:18:31.770Z,4.80
2022-10-06T10:21:07.651Z,4.40
2022-10-06T10:23:43.512Z,5.40
2022-10-06T10:26:15.329Z,7.60
2022-10-06T10:29:08.132Z,4.40
2022-10-06T10:32:08.132Z,6.20
2022-10-06T10:34:36.184Z,4.90
2022-10-06T10:37:23.711Z,5.60
2022-10-06T10:40:15.892Z,4.50
2022-10-06T10:43:05.441Z,4.00
2022-10-06T10:45:36.560Z,4.50
2022-10-06T10:48:17.555Z,4.20
2022-10-06T10:50:54.551Z,6.00
2022-10-06T10:53:31.903Z,5.00
2022-10-06T10:56:00.727Z,5.70
2022-10-06T10:58:40.260Z,4.50
2022-10-06T11:01:39.612Z,4.80
2022-10-06T11:04:12.954Z,7.60
2022-10-06T11:07:24.383Z,7.90
2022-10-06T11:10:26.243Z,5.80
2022-10-06T11:12:57.639Z,4.20
2022-10-06T11:15:46.585Z,5.40
2022-10-06T11:18:58.978Z,8.00
2022-10-06T11:21:36.596Z,4.40
2022-10-06T11:24:28.712Z,4.30
2022-10-06T11:27:24.904Z,3.80
2022-10-06T11:30:06.063Z,5.10
2022-10-06T11:33:02.041Z,4.90
2022-10-06T11:35:36.396Z,4.30
2022-10-06T11:38:42.295Z,5.10
2022-10-06T11:41:36.412Z,5.70
2022-10-06T11:44:39.114Z,6.20
2022-10-06T11:47:17.256Z,5.00
2022-10-06T11:49:49.519Z,4.80
2022-10-06T11:52:17.582Z,7.10
2022-10-06T11:54:50.055Z,4.50
2022-10-06T11:57:29.432Z,4.70
2022-10-06T12:00:04.454Z,3.70
2022-10-06T12:02:35.112Z,4.80
2022-10-06T12:05:35.066Z,4.80
2022-10-06T12:08:00.347Z,3.90
2022-10-06T12:10:28.661Z,5.30
2022-10-06T12:19:34.862Z,3.90
2022-10-06T12:22:31.196Z,5.00
2022-10-06T12:25:14.572Z,6.00
2022-10-06T12:28:05.211Z,3.80
2022-10-06T12:30:54.634Z,3.60
2022-10-06T12:33:38.092Z,4.00
2022-10-06T12:36:18.012Z,4.70
2022-10-06T12:39:05.199Z,6.50
2022-10-06T12:42:00.962Z,5.00
2022-10-06T12:44:40.525Z,3.70
2022-10-06T12:47:25.351Z,4.00
2022-10-06T12:50:03.459Z,3.50
2022-10-06T12:52:51.599Z,3.40
2022-10-06T12:55:38.311Z,2.80
2022-10-06T12:58:16.074Z,4.00
2022-10-06T13:00:44.723Z,4.10
2022-10-06T13:03:19.447Z,3.80
2022-10-06T13:05:57.514Z,4.70
2022-10-06T13:08:33.699Z,3.60
2022-10-06T13:11:22.157Z,5.40
2022-10-06T13:13:52.822Z,4.10
2022-10-06T13:16:31.813Z,4.40
2022-10-06T13:19:01.260Z,4.70
2022-10-06T13:21:30.447Z,4.20
2022-10-06T13:23:58.742Z,3.30
2022-10-06T13:26:34.691Z,5.50
2022-10-06T13:29:03.109Z,3.80
2022-10-06T13:31:36.629Z,5.40
2022-10-06T13:34:10.735Z,3.30
2022-10-06T13:36:41.355Z,5.40
2022-10-06T13:39:21.483Z,2.80
2022-10-06T13:42:03.666Z,4.30
2022-10-06T13:44:40.266Z,5.10
2022-10-06T13:47:20.208Z,4.60
2022-10-06T13:49:55.777Z,4.90
2022-10-06T13:52:33.138Z,3.30
2022-10-06T13:55:03.410Z,3.10
2022-10-06T13:57:40.464Z,3.50
2022-10-06T14:00:29.077Z,3.20
2022-10-06T14:03:06.433Z,4.00
2022-10-06T14:05:45.666Z,4.00
2022-10-06T14:08:13.883Z,4.10
2022-10-06T14:11:09.132Z,6.30
2022-10-06T14:13:53.784Z,4.90
2022-10-06T14:16:24.890Z,4.20
2022-10-06T14:21:37.945Z,7.50
2022-10-06T14:24:23.790Z,4.60
2022-10-06T14:26:55.816Z,4.00
2022-10-06T14:29:25.226Z,5.30
2022-10-06T14:31:53.583Z,4.90
2022-10-06T14:34:22.213Z,3.70
2022-10-06T14:36:55.337Z,3.80
2022-10-06T14:39:23.957Z,3.10
2022-10-06T14:41:51.976Z,4.10
2022-10-06T14:44:20.082Z,2.90
2022-10-06T14:46:49.333Z,3.30
2022-10-06T14:49:17.667Z,3.80
2022-10-06T14:51:46.021Z,4.10
2022-10-06T14:54:14.646Z,3.50
2022-10-06T14:56:42.794Z,4.00
2022-10-06T14:59:17.247Z,4.20
2022-10-06T15:01:46.866Z,3.00
2022-10-06T15:04:20.591Z,3.90
2022-10-06T15:07:07.368Z,3.30
2022-10-06T15:09:35.981Z,3.60
2022-10-06T15:12:04.260Z,2.90
2022-10-06T15:14:33.651Z,4.10
2022-10-06T15:17:01.922Z,5.20
2022-10-06T15:19:30.084Z,7.30
2022-10-06T15:21:58.124Z,5.30
2022-10-06T15:24:26.282Z,2.80
2022-10-06T15:27:12.919Z,3.60
2022-10-06T15:29:40.981Z,3.80
2022-10-06T15:32:09.610Z,3.40
2022-10-06T15:34:37.896Z,2.80
2022-10-06T15:37:06.389Z,3.70
2022-10-06T15:39:37.529Z,2.60
2022-10-06T15:42:06.449Z,6.10
2022-10-06T15:44:35.312Z,5.80
2022-10-06T15:47:05.760Z,3.10
2022-10-06T15:49:38.375Z,5.30
2022-10-06T15:52:08.770Z,8.50
2022-10-06T15:54:39.746Z,8.10
2022-10-06T15:59:40.111Z,5.50
2022-10-06T16:02:15.794Z,5.30
2022-10-06T16:04:45.287Z,6.90
2022-10-06T16:07:18.994Z,7.00
2022-10-06T16:09:48.836Z,3.90
2022-10-06T16:12:20.252Z,8.00
2022-10-06T16:14:48.786Z,7.10
2022-10-06T16:17:17.920Z,7.60
2022-10-06T16:19:47.129Z,9.60
2022-10-06T16:22:18.209Z,5.00
2022-10-06T16:24:46.242Z,4.70
2022-10-06T16:27:15.924Z,5.50
2022-10-06T16:29:44.022Z,8.00
2022-10-06T16:32:12.149Z,6.80
2022-10-06T16:34:40.225Z,9.00
2022-10-06T16:37:08.340Z,7.80
2022-10-06T16:39:36.417Z,7.10
2022-10-06T16:42:04.712Z,6.20
2022-10-06T16:44:33.170Z,8.60
2022-10-06T16:47:01.282Z,10.90
2022-10-06T16:49:29.455Z,7.30
2022-10-06T16:51:57.693Z,7.30
2022-10-06T16:54:25.815Z,9.10
2022-10-06T16:59:26.954Z,6.80
2022-10-06T17:01:55.065Z,7.80
2022-10-06T17:04:25.257Z,7.90
2022-10-06T17:06:55.302Z,6.40
2022-10-06T17:09:25.379Z,8.10
2022-10-06T17:11:59.071Z,7.70
2022-10-06T17:14:30.453Z,6.20
2022-10-06T17:17:00.361Z,8.00
2022-10-06T17:19:29.871Z,10.60
2022-10-06T17:21:59.701Z,7.50
2022-10-06T17:24:29.763Z,9.10
2022-10-06T17:26:59.098Z,9.60
2022-10-06T17:29:27.734Z,13.40
2022-10-06T17:32:00.281Z,10.00
2022-10-06T17:34:33.439Z,10.90
2022-10-06T17:37:02.797Z,11.70
2022-10-06T17:39:31.176Z,9.00
2022-10-06T17:41:59.821Z,9.10
2022-10-06T17:44:29.670Z,9.40
2022-10-06T17:47:00.359Z,10.20
2022-10-06T17:49:32.705Z,11.10
2022-10-06T17:52:01.151Z,10.30
2022-10-06T17:54:31.861Z,8.80
2022-10-06T17:57:00.058Z,8.70
2022-10-06T17:59:30.988Z,8.90
2022-10-06T18:02:02.682Z,11.50
2022-10-06T18:04:31.960Z,9.60
2022-10-06T18:07:00.442Z,10.90
2022-10-06T18:09:29.774Z,11.10
2022-10-06T18:12:00.055Z,12.30
2022-10-06T18:14:35.010Z,9.10
2022-10-06T18:17:03.958Z,12.30
2022-10-06T18:19:34.901Z,13.50
2022-10-06T18:24:40.274Z,11.10
2022-10-06T18:27:08.940Z,12.60
2022-10-06T18:29:38.541Z,13.60
2022-10-06T18:37:44.963Z,10.70
2022-10-06T18:40:14.971Z,8.80
2022-10-06T18:42:43.408Z,9.70
2022-10-06T18:45:33.220Z,10.40
2022-10-06T18:48:22.119Z,9.80
2022-10-06T18:51:02.847Z,9.70
2022-10-06T18:53:36.336Z,8.10
2022-10-06T18:56:07.239Z,8.20
2022-10-06T18:58:42.264Z,8.30
2022-10-06T19:01:11.917Z,6.70
2022-10-06T19:03:40.257Z,11.80
2022-10-06T19:06:08.427Z,9.60
2022-10-06T19:08:37.224Z,11.90
2022-10-06T19:11:25.378Z,7.90
2022-10-06T19:13:55.839Z,8.10
2022-10-06T19:16:24.101Z,7.90
2022-10-06T19:18:52.452Z,6.50
2022-10-06T19:21:21.066Z,7.50
2022-10-06T19:23:50.338Z,8.20
2022-10-06T19:26:21.998Z,10.60
2022-10-06T19:28:51.127Z,9.70
2022-10-06T19:31:20.127Z,11.60
2022-10-06T19:33:48.799Z,10.30
2022-10-06T19:36:17.485Z,9.00
2022-10-06T19:38:45.666Z,7.20
2022-10-06T19:41:32.633Z,10.90
2022-10-06T19:44:02.401Z,7.40
2022-10-06T19:46:30.572Z,8.40
2022-10-06T19:48:59.063Z,7.30
2022-10-06T19:51:27.387Z,12.50
2022-10-06T19:53:55.680Z,9.90
2022-10-06T19:56:25.298Z,12.00
2022-10-06T19:58:53.762Z,11.70
2022-10-06T20:01:22.078Z,8.90
2022-10-06T20:03:50.767Z,10.70
2022-10-06T20:06:20.726Z,7.90
2022-10-06T20:08:49.622Z,8.20
2022-10-06T20:11:22.018Z,10.20
2022-10-06T20:13:51.059Z,10.30
2022-10-06T20:16:20.497Z,9.70
2022-10-06T20:18:50.787Z,7.80
2022-10-06T20:21:30.859Z,9.70
2022-10-06T20:24:01.847Z,8.50
2022-10-06T20:26:33.309Z,8.00
2022-10-06T20:29:05.407Z,10.00
2022-10-06T20:31:37.148Z,10.10
2022-10-06T20:34:08.559Z,8.00
2022-10-06T20:36:38.461Z,8.50
2022-10-06T20:39:27.307Z,6.70
2022-10-06T20:41:56.232Z,11.10
2022-10-06T20:44:24.452Z,7.40
2022-10-06T20:46:52.741Z,12.70
2022-10-06T20:49:21.793Z,7.60
2022-10-06T20:51:51.737Z,10.30
2022-10-06T20:54:26.544Z,9.20
2022-10-06T20:56:55.670Z,6.20
2022-10-06T20:59:25.006Z,9.60
2022-10-06T21:01:53.403Z,7.80
2022-10-06T21:04:22.231Z,8.40
2022-10-06T21:06:51.012Z,8.00
2022-10-06T21:09:19.778Z,11.30
2022-10-06T21:11:49.483Z,9.00
2022-10-06T21:14:18.354Z,7.70
2022-10-06T21:16:48.272Z,8.60
2022-10-06T21:19:18.143Z,11.30
2022-10-06T21:21:52.075Z,8.20
2022-10-06T21:24:21.025Z,10.40
2022-10-06T21:26:50.509Z,11.00
2022-10-06T21:29:18.887Z,10.70
2022-10-06T21:31:47.591Z,12.50
2022-10-06T21:34:15.855Z,12.50
2022-10-06T21:36:44.373Z,10.90
2022-10-06T21:39:13.518Z,9.70
2022-10-06T21:41:42.003Z,8.10
2022-10-06T21:44:10.146Z,10.30
2022-10-06T21:46:40.000Z,9.60
2022-10-06T21:49:13.342Z,12.70
2022-10-06T21:51:42.718Z,11.10
2022-10-06T21:54:10.875Z,9.40
2022-10-06T21:56:39.421Z,9.70
2022-10-06T21:59:08.636Z,10.70
2022-10-06T22:01:39.817Z,11.50
2022-10-06T22:04:08.755Z,9.50
2022-10-06T22:06:37.977Z,9.00
2022-10-06T22:09:08.053Z,10.30
2022-10-06T22:11:39.608Z,14.40
2022-10-06T22:14:11.912Z,10.60
2022-10-06T22:16:41.015Z,9.30
2022-10-06T22:19:12.162Z,10.30
2022-10-06T22:24:19.383Z,8.70
2022-10-06T22:26:48.762Z,8.40
2022-10-06T22:29:19.246Z,11.40
2022-10-06T22:31:48.931Z,11.90
2022-10-06T22:34:20.278Z,9.30
2022-10-06T22:36:48.560Z,9.00
2022-10-06T22:39:16.951Z,10.10
2022-10-06T22:41:45.562Z,11.30
2022-10-06T22:44:13.888Z,10.70
2022-10-06T22:46:42.267Z,9.90
2022-10-06T22:49:10.727Z,11.50
2022-10-06T22:51:39.307Z,10.30
2022-10-06T22:54:07.627Z,8.80
2022-10-06T22:56:36.019Z,10.40
2022-10-06T22:59:04.288Z,11.10
2022-10-06T23:01:32.448Z,10.10
2022-10-06T23:04:00.631Z,9.10
2022-10-06T23:06:32.051Z,9.30
2022-10-06T23:09:00.344Z,10.00
2022-10-06T23:11:28.863Z,11.20
2022-10-06T23:13:57.158Z,9.70
2022-10-06T23:16:25.384Z,11.30
2022-10-06T23:18:55.167Z,10.80
2022-10-06T23:21:27.581Z,14.10
2022-10-06T23:23:59.869Z,9.10
2022-10-06T23:26:28.754Z,11.40
2022-10-06T23:28:59.244Z,12.50
2022-10-06T23:31:28.860Z,8.70
2022-10-06T23:33:57.512Z,9.10
2022-10-06T23:36:25.883Z,9.70
2022-10-06T23:38:54.635Z,9.80
2022-10-06T23:41:22.787Z,10.70
2022-10-06T23:43:51.091Z,12.70
2022-10-06T23:46:19.368Z,12.20
2022-10-06T23:48:47.555Z,14.70
2022-10-06T23:51:16.385Z,12.30
2022-10-06T23:53:44.932Z,10.90
2022-10-06T23:56:13.971Z,12.00
2022-10-06T23:58:42.709Z,12.40
